KPOU/POU METAR and TAF weather

Enter ICAO airport designator
Station Type Date Time Source
KPOU METAR 2022/12/04 03:53 UTC NOAA

KPOU 040353Z AUTO 28010G21KT 10SM SCT060 07/M03 A3010 RMK AO2 SLP192 T00671033


Station Type Date Time Source
KPOU Decoded METAR 2022/12/04 03:53 UTC NOAA

POUGHKEEPSIE DUTCHESS CTY, NY, United States (KPOU) 41-38N 073-53W 46M
Dec 03, 2022 - 10:53 PM EST / 2022.12.04 0353 UTC
Wind: from the W (280 degrees) at 12 MPH (10 KT) gusting to 24 MPH (21 KT):0
Visibility: 10 mile(s):0
Sky conditions: partly cloudy
Temperature: 44.1 F (6.7 C)
Dew Point: 26.1 F (-3.3 C)
Relative Humidity: 48%
Pressure (altimeter): 30.1 in. Hg (1019 hPa)
ob: KPOU 040353Z AUTO 28010G21KT 10SM SCT060 07/M03 A3010 RMK AO2 SLP192 T00671033
cycle: 4

Station Type Date Time Source
KPOU TAF 2022/12/04 04:06 UTC NOAA

TAF
AMD KPOU 040404Z 0404/0424 28010G20KT P6SM BKN050
FM040600 29008KT P6SM SCT050

Example: see airport list